Time;durP1;ratioP1;P1;durP2;ratioP2;P2;SDS_P1;SDS_P2;PMS_P1;PMS_P2;Temp;Humidity;BMP_temperature;BMP_pressure;BME280_temperature;BME280_humidity;BME280_pressure;Samples;Min_cycle;Max_cycle;Signal;HPM_P1;HPM_P2
2024/01/12 00:01:05;;;;;;;19.27;7.90;;;;;;;;;;5033469;28;20025;-67
2024/01/12 00:03:50;;;;;;;16.52;8.18;;;;;;;;;;5036144;28;20122;-66
2024/01/12 00:06:36;;;;;;;14.93;7.47;;;;;;;;;;5055012;28;20036;-66
2024/01/12 00:09:22;;;;;;;18.60;9.00;;;;;;;;;;5054537;28;20025;-67
2024/01/12 00:12:07;;;;;;;24.90;8.30;;;;;;;;;;5054219;28;20572;-67
2024/01/12 00:14:53;;;;;;;22.70;9.82;;;;;;;;;;5038243;28;20029;-67
2024/01/12 00:17:39;;;;;;;19.27;8.13;;;;;;;;;;5053176;28;20082;-66
2024/01/12 00:20:24;;;;;;;15.43;7.55;;;;;;;;;;5053462;28;20128;-67
2024/01/12 00:23:10;;;;;;;22.60;10.02;;;;;;;;;;5054007;28;20498;-67
2024/01/12 00:25:59;;;;;;;21.83;9.52;;;;;;;;;;5050832;28;20107;-67
2024/01/12 00:28:44;;;;;;;23.25;8.70;;;;;;;;;;5035468;28;20071;-66
2024/01/12 00:31:30;;;;;;;20.52;9.18;;;;;;;;;;5032824;28;20061;-66
2024/01/12 00:34:15;;;;;;;20.52;7.95;;;;;;;;;;5039582;28;20160;-67
2024/01/12 00:37:01;;;;;;;16.98;8.73;;;;;;;;;;5033641;28;20123;-66
2024/01/12 00:39:47;;;;;;;22.30;9.60;;;;;;;;;;5040278;28;20438;-67
2024/01/12 00:42:32;;;;;;;16.92;9.07;;;;;;;;;;5033298;28;20021;-67
2024/01/12 00:45:18;;;;;;;16.02;8.85;;;;;;;;;;5040701;28;20025;-67
2024/01/12 00:48:05;;;;;;;18.55;8.63;;;;;;;;;;5034099;28;20618;-66
2024/01/12 00:50:50;;;;;;;21.90;8.80;;;;;;;;;;5032843;28;20063;-66
2024/01/12 00:53:36;;;;;;;20.38;9.10;;;;;;;;;;5050420;28;20031;-66
2024/01/12 00:56:22;;;;;;;19.58;9.23;;;;;;;;;;5052917;28;20449;-66
2024/01/12 00:59:07;;;;;;;16.98;9.57;;;;;;;;;;5043851;28;20032;-66
2024/01/12 01:01:57;;;;;;;16.10;7.68;;;;;;;;;;5041567;28;20040;-67
2024/01/12 01:04:43;;;;;;;22.00;8.70;;;;;;;;;;5037197;28;20013;-67
2024/01/12 01:07:29;;;;;;;28.05;11.25;;;;;;;;;;5051209;28;20025;-66
2024/01/12 01:10:14;;;;;;;99.57;25.73;;;;;;;;;;5031618;28;20507;-66
2024/01/12 01:13:00;;;;;;;25.10;10.80;;;;;;;;;;5034033;28;20039;-67
2024/01/12 01:15:46;;;;;;;19.27;8.05;;;;;;;;;;5050612;28;20429;-66
2024/01/12 01:18:32;;;;;;;14.18;8.30;;;;;;;;;;5038203;28;20099;-67
2024/01/12 01:21:17;;;;;;;17.60;8.57;;;;;;;;;;5053273;28;20021;-67
2024/01/12 01:24:03;;;;;;;17.27;8.50;;;;;;;;;;5051195;28;20079;-66
2024/01/12 01:26:50;;;;;;;20.40;9.07;;;;;;;;;;5045583;28;20064;-67
2024/01/12 01:29:36;;;;;;;21.60;9.68;;;;;;;;;;5032624;28;20076;-66
2024/01/12 01:32:21;;;;;;;21.27;9.07;;;;;;;;;;5039089;28;20025;-66
2024/01/12 01:35:07;;;;;;;17.27;8.68;;;;;;;;;;5033513;28;20029;-66
2024/01/12 01:37:53;;;;;;;21.77;8.98;;;;;;;;;;5036501;28;20028;-66
2024/01/12 01:40:39;;;;;;;16.52;8.15;;;;;;;;;;5032785;28;20026;-66
2024/01/12 01:43:24;;;;;;;21.75;10.75;;;;;;;;;;5036227;28;20124;-66
2024/01/12 01:46:10;;;;;;;22.13;9.25;;;;;;;;;;5053670;28;20032;-66
2024/01/12 01:48:55;;;;;;;18.48;8.88;;;;;;;;;;5056740;28;20064;-67
2024/01/12 01:51:41;;;;;;;23.35;8.27;;;;;;;;;;5056302;28;20108;-67
2024/01/12 01:54:27;;;;;;;22.85;8.40;;;;;;;;;;5056124;28;20053;-66
2024/01/12 01:57:13;;;;;;;20.65;9.50;;;;;;;;;;5042884;28;20498;-67
2024/01/12 01:59:59;;;;;;;14.65;7.85;;;;;;;;;;5030035;28;20033;-66
2024/01/12 02:02:45;;;;;;;20.42;9.38;;;;;;;;;;5050275;28;20025;-67
2024/01/12 02:05:30;;;;;;;15.88;8.35;;;;;;;;;;5051612;28;20041;-67
2024/01/12 02:08:16;;;;;;;24.65;10.13;;;;;;;;;;5036764;28;20083;-66
2024/01/12 02:11:02;;;;;;;15.98;7.60;;;;;;;;;;5049183;28;20021;-67
2024/01/12 02:13:47;;;;;;;15.25;7.82;;;;;;;;;;5041922;28;20036;-66
2024/01/12 02:16:34;;;;;;;18.45;8.05;;;;;;;;;;5055049;28;20017;-66
2024/01/12 02:19:20;;;;;;;17.38;8.60;;;;;;;;;;5054985;28;20486;-65
2024/01/12 02:22:05;;;;;;;15.88;7.07;;;;;;;;;;5051853;28;20120;-67
2024/01/12 02:24:51;;;;;;;18.77;7.30;;;;;;;;;;5055489;28;20025;-67
2024/01/12 02:27:37;;;;;;;19.27;7.97;;;;;;;;;;5055187;28;20429;-66
2024/01/12 02:30:23;;;;;;;19.85;7.88;;;;;;;;;;5040227;28;20025;-67
2024/01/12 02:33:11;;;;;;;15.20;7.57;;;;;;;;;;5040283;28;20116;-66
2024/01/12 02:35:56;;;;;;;17.58;7.80;;;;;;;;;;5079971;22;20049;-65
2024/01/12 02:38:48;;;;;;;18.90;8.82;;;;;;;;;;5055499;28;20021;-67
2024/01/12 02:41:33;;;;;;;22.08;7.85;;;;;;;;;;5042060;28;20497;-66
2024/01/12 02:44:19;;;;;;;17.60;7.30;;;;;;;;;;5057702;28;20025;-65
2024/01/12 02:47:06;;;;;;;17.17;6.82;;;;;;;;;;5076006;28;20025;-67
2024/01/12 02:49:52;;;;;;;17.45;8.13;;;;;;;;;;5074115;28;20025;-66
2024/01/12 02:52:37;;;;;;;19.48;8.10;;;;;;;;;;5074870;28;20379;-66
2024/01/12 02:55:23;;;;;;;13.68;7.10;;;;;;;;;;5074213;28;20167;-67
2024/01/12 02:58:09;;;;;;;18.15;7.63;;;;;;;;;;5075191;28;20024;-67
2024/01/12 03:00:54;;;;;;;14.15;6.68;;;;;;;;;;5075654;28;20462;-66
2024/01/12 03:03:40;;;;;;;16.10;7.10;;;;;;;;;;5074708;28;20098;-66
2024/01/12 03:06:26;;;;;;;14.60;7.35;;;;;;;;;;5074317;28;20025;-68
2024/01/12 03:09:11;;;;;;;16.25;6.53;;;;;;;;;;5075335;28;20486;-68
2024/01/12 03:11:57;;;;;;;15.10;7.10;;;;;;;;;;5074918;28;20024;-66
2024/01/12 03:14:42;;;;;;;13.95;7.22;;;;;;;;;;5074547;28;20021;-67
2024/01/12 03:17:28;;;;;;;13.93;6.97;;;;;;;;;;5075215;28;20021;-66
2024/01/12 03:20:14;;;;;;;11.25;5.47;;;;;;;;;;5074844;28;20444;-67
2024/01/12 03:23:00;;;;;;;13.93;5.55;;;;;;;;;;5074202;28;20028;-66
2024/01/12 03:25:45;;;;;;;14.20;5.45;;;;;;;;;;5074572;28;20087;-66
2024/01/12 03:28:32;;;;;;;17.17;6.28;;;;;;;;;;5074005;28;20494;-66
2024/01/12 03:31:19;;;;;;;11.05;4.82;;;;;;;;;;5073249;28;20380;-66
2024/01/12 03:34:04;;;;;;;14.05;5.25;;;;;;;;;;5059623;28;20462;-66
2024/01/12 03:36:50;;;;;;;8.15;3.92;;;;;;;;;;5073676;28;20031;-66
2024/01/12 03:39:36;;;;;;;6.68;3.55;;;;;;;;;;5074499;28;20021;-66
2024/01/12 03:42:21;;;;;;;12.95;4.13;;;;;;;;;;5074800;28;20017;-66
2024/01/12 03:45:07;;;;;;;16.88;5.30;;;;;;;;;;5074551;28;20052;-66
2024/01/12 03:47:53;;;;;;;7.95;3.40;;;;;;;;;;5073106;28;20090;-66
2024/01/12 03:50:39;;;;;;;11.88;3.78;;;;;;;;;;5073767;28;20162;-66
2024/01/12 03:53:24;;;;;;;5.88;3.00;;;;;;;;;;5074501;28;20021;-66
2024/01/12 03:56:10;;;;;;;6.28;3.40;;;;;;;;;;5073884;28;20090;-68
2024/01/12 03:58:55;;;;;;;6.70;2.80;;;;;;;;;;5074302;28;20035;-66
2024/01/12 04:01:45;;;;;;;15.13;3.55;;;;;;;;;;5075061;28;20429;-66
2024/01/12 04:04:30;;;;;;;12.90;3.38;;;;;;;;;;5073678;28;20154;-66
2024/01/12 04:07:18;;;;;;;6.00;2.83;;;;;;;;;;5065147;28;20115;-66
2024/01/12 04:10:04;;;;;;;14.88;3.03;;;;;;;;;;5058743;28;20017;-66
2024/01/12 04:12:50;;;;;;;17.67;2.80;;;;;;;;;;5073958;28;20021;-66
2024/01/12 04:15:36;;;;;;;8.93;2.05;;;;;;;;;;5073835;28;20036;-66
2024/01/12 04:18:23;;;;;;;13.60;2.83;;;;;;;;;;5090341;28;20058;-66
2024/01/12 04:21:09;;;;;;;4.20;2.00;;;;;;;;;;5094230;28;20024;-66
2024/01/12 04:23:55;;;;;;;20.95;2.92;;;;;;;;;;5093034;28;20086;-66
2024/01/12 04:26:40;;;;;;;3.47;1.90;;;;;;;;;;5092832;28;20111;-66
2024/01/12 04:29:26;;;;;;;8.40;2.58;;;;;;;;;;5093696;28;20020;-66
2024/01/12 04:32:11;;;;;;;5.57;2.20;;;;;;;;;;5083497;28;21021;-66
2024/01/12 04:34:57;;;;;;;6.22;2.53;;;;;;;;;;5073075;28;20042;-66
2024/01/12 04:37:43;;;;;;;13.55;2.78;;;;;;;;;;5072407;28;20059;-67
2024/01/12 04:40:28;;;;;;;10.80;1.90;;;;;;;;;;5073817;28;20425;-67
2024/01/12 04:43:14;;;;;;;9.35;2.03;;;;;;;;;;5072984;28;20021;-66
2024/01/12 04:46:00;;;;;;;8.50;2.25;;;;;;;;;;5074698;28;20115;-66
2024/01/12 04:48:45;;;;;;;4.93;2.38;;;;;;;;;;5073130;28;20028;-66
2024/01/12 04:51:31;;;;;;;4.32;2.10;;;;;;;;;;5073564;28;20067;-66
2024/01/12 04:54:16;;;;;;;3.55;2.28;;;;;;;;;;5076848;28;20111;-66
2024/01/12 04:57:02;;;;;;;3.85;2.17;;;;;;;;;;5073850;28;20024;-66
2024/01/12 04:59:48;;;;;;;6.60;2.47;;;;;;;;;;5072885;28;20021;-67
2024/01/12 05:02:33;;;;;;;5.50;2.58;;;;;;;;;;5074321;28;20512;-66
2024/01/12 05:05:20;;;;;;;3.45;1.98;;;;;;;;;;5062117;28;20040;-66
2024/01/12 05:08:05;;;;;;;2.92;1.85;;;;;;;;;;5057362;28;20020;-66
2024/01/12 05:10:51;;;;;;;2.67;2.03;;;;;;;;;;5073040;28;20024;-67
2024/01/12 05:13:37;;;;;;;2.35;1.67;;;;;;;;;;5071672;28;20099;-66
2024/01/12 05:16:22;;;;;;;3.55;1.70;;;;;;;;;;5072359;28;20016;-67
2024/01/12 05:19:08;;;;;;;2.75;1.45;;;;;;;;;;5073529;28;20482;-66
2024/01/12 05:21:54;;;;;;;3.22;2.20;;;;;;;;;;5072013;28;20021;-67
2024/01/12 05:24:39;;;;;;;3.55;2.00;;;;;;;;;;5072863;28;20024;-66
2024/01/12 05:27:25;;;;;;;3.88;2.25;;;;;;;;;;5073786;28;20473;-66
2024/01/12 05:30:11;;;;;;;5.65;2.00;;;;;;;;;;5072707;28;20102;-67
2024/01/12 05:32:57;;;;;;;4.60;1.98;;;;;;;;;;5073651;28;20020;-66
2024/01/12 05:35:44;;;;;;;11.25;3.65;;;;;;;;;;5091277;28;20217;-66
2024/01/12 05:38:29;;;;;;;8.60;4.28;;;;;;;;;;5077711;28;20036;-66
2024/01/12 05:41:15;;;;;;;17.25;5.55;;;;;;;;;;5092921;28;20389;-67
2024/01/12 05:44:01;;;;;;;17.17;3.70;;;;;;;;;;5092506;28;20107;-67
2024/01/12 05:46:46;;;;;;;11.23;3.38;;;;;;;;;;5062436;28;20067;-66
2024/01/12 05:49:32;;;;;;;16.55;3.60;;;;;;;;;;5071276;28;20107;-66
2024/01/12 05:52:18;;;;;;;18.40;5.13;;;;;;;;;;5067166;28;20032;-67
2024/01/12 05:55:04;;;;;;;17.88;4.93;;;;;;;;;;5052421;28;20372;-67
2024/01/12 05:57:49;;;;;;;23.05;4.85;;;;;;;;;;5071749;28;20583;-66
2024/01/12 06:00:35;;;;;;;17.00;3.80;;;;;;;;;;5088173;28;20397;-66
2024/01/12 06:03:20;;;;;;;7.85;3.08;;;;;;;;;;5086977;28;20016;-66
2024/01/12 06:06:06;;;;;;;13.55;2.92;;;;;;;;;;5084515;28;20028;-67
2024/01/12 06:08:52;;;;;;;17.85;3.42;;;;;;;;;;5090888;28;20439;-66
2024/01/12 06:11:42;;;;;;;14.38;3.85;;;;;;;;;;5075050;28;20028;-67
2024/01/12 06:14:27;;;;;;;10.73;2.55;;;;;;;;;;5071782;28;20150;-66
2024/01/12 06:17:13;;;;;;;19.23;3.67;;;;;;;;;;5076082;28;20048;-66
2024/01/12 06:19:59;;;;;;;9.30;3.05;;;;;;;;;;5051662;28;20020;-66
2024/01/12 06:22:44;;;;;;;24.27;3.13;;;;;;;;;;5052097;28;20564;-66
2024/01/12 06:25:31;;;;;;;8.98;2.63;;;;;;;;;;5086308;28;20503;-66
2024/01/12 06:28:17;;;;;;;12.07;4.13;;;;;;;;;;5089349;28;20016;-66
2024/01/12 06:31:03;;;;;;;20.10;4.60;;;;;;;;;;5090159;28;20021;-66
2024/01/12 06:33:48;;;;;;;18.08;5.18;;;;;;;;;;5085402;28;20055;-65
2024/01/12 06:36:34;;;;;;;12.40;4.00;;;;;;;;;;5094020;28;20028;-66
2024/01/12 06:39:20;;;;;;;21.20;4.38;;;;;;;;;;5088474;28;20054;-66
2024/01/12 06:42:05;;;;;;;12.38;2.75;;;;;;;;;;5056320;28;20061;-66
2024/01/12 06:44:51;;;;;;;12.00;3.50;;;;;;;;;;5054935;28;20086;-67
2024/01/12 06:47:37;;;;;;;7.93;3.60;;;;;;;;;;5076406;28;20101;-66
2024/01/12 06:50:22;;;;;;;23.23;3.05;;;;;;;;;;5074436;28;20020;-66
2024/01/12 06:53:09;;;;;;;18.35;4.45;;;;;;;;;;5076963;28;20485;-66
2024/01/12 06:55:54;;;;;;;9.93;3.08;;;;;;;;;;5074495;28;20510;-67
2024/01/12 06:58:40;;;;;;;14.02;3.45;;;;;;;;;;5077695;28;20024;-66
2024/01/12 07:01:26;;;;;;;15.45;3.33;;;;;;;;;;5087573;28;20032;-67
2024/01/12 07:04:11;;;;;;;24.08;2.92;;;;;;;;;;5071450;28;20028;-67
2024/01/12 07:06:57;;;;;;;26.50;3.47;;;;;;;;;;5076594;28;20024;-66
2024/01/12 07:09:44;;;;;;;26.85;3.80;;;;;;;;;;5090585;28;20619;-66
2024/01/12 07:12:30;;;;;;;12.73;3.17;;;;;;;;;;5092286;28;20024;-66
2024/01/12 07:15:16;;;;;;;16.75;3.90;;;;;;;;;;5088038;28;20043;-66
2024/01/12 07:18:01;;;;;;;19.25;3.85;;;;;;;;;;5093625;28;20016;-66
2024/01/12 07:20:47;;;;;;;21.42;3.38;;;;;;;;;;5084909;28;20028;-66
2024/01/12 07:23:33;;;;;;;12.05;2.72;;;;;;;;;;5079555;28;20107;-66
2024/01/12 07:26:19;;;;;;;19.95;3.10;;;;;;;;;;5085986;28;20051;-67
2024/01/12 07:29:05;;;;;;;18.00;3.05;;;;;;;;;;5093499;28;20028;-66
2024/01/12 07:31:50;;;;;;;21.08;3.55;;;;;;;;;;5088579;28;20024;-67
2024/01/12 07:34:36;;;;;;;10.38;3.28;;;;;;;;;;5093373;28;20032;-66
2024/01/12 07:37:22;;;;;;;8.68;3.53;;;;;;;;;;5081148;28;20504;-66
2024/01/12 07:40:09;;;;;;;16.40;3.10;;;;;;;;;;5092812;28;20069;-66
2024/01/12 07:42:54;;;;;;;15.70;3.03;;;;;;;;;;5078964;28;20024;-67
2024/01/12 07:45:40;;;;;;;15.82;4.30;;;;;;;;;;5073642;28;20514;-66
2024/01/12 07:48:26;;;;;;;10.02;3.17;;;;;;;;;;5073888;28;20081;-66
2024/01/12 07:51:11;;;;;;;16.33;3.78;;;;;;;;;;5074362;28;20074;-67
2024/01/12 07:53:57;;;;;;;21.23;3.65;;;;;;;;;;5073491;28;20024;-66
2024/01/12 07:56:42;;;;;;;20.27;4.15;;;;;;;;;;5073715;28;20557;-66
2024/01/12 07:59:28;;;;;;;30.23;5.53;;;;;;;;;;5073333;28;20443;-66
2024/01/12 08:02:14;;;;;;;25.10;3.60;;;;;;;;;;5073437;28;20021;-66
2024/01/12 08:05:00;;;;;;;23.63;4.00;;;;;;;;;;5072135;28;20025;-66
2024/01/12 08:07:46;;;;;;;23.33;4.70;;;;;;;;;;5073396;28;20524;-66
2024/01/12 08:10:32;;;;;;;19.23;3.97;;;;;;;;;;5072330;28;20131;-66
2024/01/12 08:13:18;;;;;;;17.55;3.53;;;;;;;;;;5086065;28;20020;-66
2024/01/12 08:16:03;;;;;;;24.30;3.63;;;;;;;;;;5073103;28;20485;-67
2024/01/12 08:18:49;;;;;;;19.35;4.07;;;;;;;;;;5075328;28;20028;-66
2024/01/12 08:21:35;;;;;;;13.38;4.60;;;;;;;;;;5071660;28;20074;-67
2024/01/12 08:24:20;;;;;;;30.60;3.83;;;;;;;;;;5071760;28;20458;-67
2024/01/12 08:27:06;;;;;;;17.23;4.18;;;;;;;;;;5074028;28;20035;-67
2024/01/12 08:29:52;;;;;;;12.32;3.38;;;;;;;;;;5073088;28;20028;-67
2024/01/12 08:32:38;;;;;;;24.15;4.95;;;;;;;;;;5057770;28;20028;-67
2024/01/12 08:35:23;;;;;;;27.45;4.38;;;;;;;;;;5072083;28;20040;-67
2024/01/12 08:38:09;;;;;;;18.10;3.33;;;;;;;;;;5073596;28;20110;-67
2024/01/12 08:40:55;;;;;;;24.40;4.93;;;;;;;;;;5071487;28;20028;-67
2024/01/12 08:43:41;;;;;;;17.75;4.32;;;;;;;;;;5072199;28;20482;-67
2024/01/12 08:46:26;;;;;;;23.70;6.43;;;;;;;;;;5073663;28;20501;-67
2024/01/12 08:49:12;;;;;;;17.95;4.45;;;;;;;;;;5051887;28;20146;-67
2024/01/12 08:51:58;;;;;;;24.42;4.95;;;;;;;;;;5058738;28;20032;-67
2024/01/12 08:54:43;;;;;;;21.38;5.13;;;;;;;;;;5052016;28;20028;-67
2024/01/12 08:57:29;;;;;;;18.70;4.28;;;;;;;;;;5052745;28;20032;-67
2024/01/12 09:00:16;;;;;;;34.50;4.57;;;;;;;;;;5072680;28;20052;-67
2024/01/12 09:03:03;;;;;;;17.48;4.65;;;;;;;;;;5078295;28;20040;-67
2024/01/12 09:05:48;;;;;;;18.55;4.25;;;;;;;;;;5072890;28;20028;-67
2024/01/12 09:08:34;;;;;;;15.73;4.45;;;;;;;;;;5072240;28;20052;-67
2024/01/12 09:11:19;;;;;;;17.25;3.58;;;;;;;;;;5075721;28;20104;-67
2024/01/12 09:14:08;;;;;;;23.75;3.42;;;;;;;;;;5057949;28;20063;-67
2024/01/12 09:16:53;;;;;;;19.80;3.65;;;;;;;;;;5073374;28;20572;-67
2024/01/12 09:19:39;;;;;;;18.00;4.75;;;;;;;;;;5072401;28;20108;-70
2024/01/12 09:22:25;;;;;;;14.50;4.30;;;;;;;;;;5072622;28;20047;-68
2024/01/12 09:25:10;;;;;;;18.65;3.60;;;;;;;;;;5052122;28;20104;-68
2024/01/12 09:27:57;;;;;;;17.75;3.90;;;;;;;;;;5052053;28;20182;-68
2024/01/12 09:30:44;;;;;;;18.10;3.72;;;;;;;;;;5057975;28;20113;-68
2024/01/12 09:33:30;;;;;;;22.55;3.78;;;;;;;;;;5071932;28;20043;-68
2024/01/12 09:36:15;;;;;;;18.73;3.80;;;;;;;;;;5056719;28;20031;-69
2024/01/12 09:39:01;;;;;;;15.38;4.55;;;;;;;;;;5072057;28;20082;-67
2024/01/12 09:41:49;;;;;;;20.80;6.75;;;;;;;;;;5053445;28;20021;-68
2024/01/12 09:44:38;;;;;;;16.42;5.00;;;;;;;;;;5039736;28;20024;-67
2024/01/12 09:47:24;;;;;;;26.70;6.40;;;;;;;;;;5074308;28;20459;-68
2024/01/12 09:50:12;;;;;;;13.00;3.75;;;;;;;;;;5071163;28;20137;-68
2024/01/12 09:52:58;;;;;;;17.95;4.18;;;;;;;;;;5069315;28;20032;-68
2024/01/12 09:55:43;;;;;;;15.25;3.35;;;;;;;;;;5071812;28;20062;-68
2024/01/12 09:58:29;;;;;;;14.55;3.35;;;;;;;;;;5079527;28;20378;-68
2024/01/12 10:01:15;;;;;;;20.73;3.83;;;;;;;;;;5090676;28;20032;-67
2024/01/12 10:04:01;;;;;;;15.23;4.10;;;;;;;;;;5082740;28;20039;-67
2024/01/12 10:06:46;;;;;;;13.88;2.65;;;;;;;;;;5075925;28;20036;-68
2024/01/12 10:09:32;;;;;;;10.38;2.90;;;;;;;;;;5056304;28;20029;-68
2024/01/12 10:12:18;;;;;;;18.65;4.70;;;;;;;;;;5056417;28;20087;-68
2024/01/12 10:15:07;;;;;;;20.40;4.65;;;;;;;;;;5055188;28;20020;-68
2024/01/12 10:17:52;;;;;;;31.40;7.25;;;;;;;;;;5054413;28;20057;-68
2024/01/12 10:20:38;;;;;;;26.77;5.15;;;;;;;;;;5072618;28;20024;-68
2024/01/12 10:23:25;;;;;;;24.73;6.35;;;;;;;;;;5075414;28;20461;-68
2024/01/12 10:26:15;;;;;;;26.63;7.53;;;;;;;;;;5063362;28;20035;-68
2024/01/12 10:29:02;;;;;;;19.13;6.10;;;;;;;;;;5054754;28;20021;-68
2024/01/12 10:31:48;;;;;;;24.50;4.60;;;;;;;;;;5052249;28;20028;-68
2024/01/12 10:34:34;;;;;;;17.23;3.97;;;;;;;;;;5078608;28;20060;-69
2024/01/12 10:37:20;;;;;;;17.50;3.35;;;;;;;;;;5074845;28;20090;-68
2024/01/12 10:40:07;;;;;;;16.77;3.25;;;;;;;;;;5055223;28;20351;-69
2024/01/12 10:42:55;;;;;;;20.77;3.60;;;;;;;;;;5060776;28;20017;-68
2024/01/12 10:45:44;;;;;;;15.80;4.35;;;;;;;;;;5075776;28;20032;-68
2024/01/12 10:48:31;;;;;;;14.85;4.00;;;;;;;;;;5084625;28;20025;-68
2024/01/12 10:51:19;;;;;;;24.35;4.38;;;;;;;;;;5060055;28;20460;-69
2024/01/12 10:54:12;;;;;;;18.80;4.93;;;;;;;;;;5056313;28;20031;-68
2024/01/12 10:56:58;;;;;;;22.42;4.88;;;;;;;;;;5059524;28;20465;-69
2024/01/12 10:59:44;;;;;;;23.70;5.07;;;;;;;;;;5074301;28;20184;-68
2024/01/12 11:02:30;;;;;;;13.85;4.28;;;;;;;;;;5076072;28;20512;-69
2024/01/12 11:05:16;;;;;;;17.52;6.00;;;;;;;;;;5071356;28;20051;-69
2024/01/12 11:08:02;;;;;;;23.98;3.75;;;;;;;;;;5093779;28;20372;-69
2024/01/12 11:10:53;;;;;;;25.90;5.72;;;;;;;;;;5068638;28;20100;-69
2024/01/12 11:13:39;;;;;;;19.00;4.95;;;;;;;;;;5060085;28;20024;-69
2024/01/12 11:16:24;;;;;;;24.48;6.03;;;;;;;;;;5073762;28;20032;-69
2024/01/12 11:19:14;;;;;;;20.55;4.40;;;;;;;;;;5046088;28;20070;-69
2024/01/12 11:22:07;;;;;;;13.88;3.92;;;;;;;;;;5074371;28;20033;-69
2024/01/12 11:24:52;;;;;;;17.67;4.65;;;;;;;;;;5039617;28;20024;-69
2024/01/12 11:27:40;;;;;;;15.95;4.28;;;;;;;;;;5054404;28;20074;-68
2024/01/12 11:30:25;;;;;;;11.95;4.55;;;;;;;;;;5039896;28;20025;-68
2024/01/12 11:33:16;;;;;;;35.45;6.50;;;;;;;;;;5053428;28;20036;-68
2024/01/12 11:36:02;;;;;;;19.38;3.85;;;;;;;;;;5085764;28;20481;-69
2024/01/12 11:38:48;;;;;;;13.50;3.20;;;;;;;;;;5092976;28;20558;-69
2024/01/12 11:41:34;;;;;;;17.98;3.45;;;;;;;;;;5085436;28;20023;-69
2024/01/12 11:44:19;;;;;;;18.15;3.78;;;;;;;;;;5092724;28;20020;-69
2024/01/12 11:47:08;;;;;;;10.88;3.13;;;;;;;;;;5077578;28;20054;-69
2024/01/12 11:49:53;;;;;;;30.00;4.55;;;;;;;;;;5074747;28;20103;-69
2024/01/12 11:52:39;;;;;;;19.50;3.65;;;;;;;;;;5088544;28;20031;-69
2024/01/12 11:55:25;;;;;;;31.13;5.28;;;;;;;;;;5091631;28;20027;-69
2024/01/12 11:58:12;;;;;;;23.88;4.75;;;;;;;;;;5071252;28;20020;-69
2024/01/12 12:00:59;;;;;;;13.40;3.85;;;;;;;;;;5090536;28;20030;-69
2024/01/12 12:03:45;;;;;;;19.63;4.03;;;;;;;;;;5094333;28;20024;-69
2024/01/12 12:06:30;;;;;;;17.98;3.97;;;;;;;;;;5071816;28;20463;-69
2024/01/12 12:09:16;;;;;;;21.75;4.60;;;;;;;;;;5073306;28;20062;-68
2024/01/12 12:12:06;;;;;;;25.23;4.72;;;;;;;;;;5073897;28;20078;-69
2024/01/12 12:15:04;;;;;;;15.55;3.58;;;;;;;;;;5060535;28;20077;-69
2024/01/12 12:17:49;;;;;;;17.55;3.25;;;;;;;;;;5059028;28;20028;-69
2024/01/12 12:20:35;;;;;;;23.00;3.88;;;;;;;;;;5075650;28;20486;-69
2024/01/12 12:23:21;;;;;;;17.13;4.35;;;;;;;;;;5061741;28;20032;-70
2024/01/12 12:26:06;;;;;;;15.85;3.22;;;;;;;;;;5076417;28;20029;-69
2024/01/12 12:28:56;;;;;;;16.98;4.13;;;;;;;;;;5058985;28;20036;-69
2024/01/12 12:31:41;;;;;;;19.85;4.15;;;;;;;;;;5068522;28;20161;-69
2024/01/12 12:34:33;;;;;;;28.13;4.80;;;;;;;;;;5078931;28;20032;-69
2024/01/12 12:37:21;;;;;;;28.08;4.72;;;;;;;;;;5074062;28;20028;-69
2024/01/12 12:40:11;;;;;;;12.55;2.70;;;;;;;;;;5061467;28;20558;-69
2024/01/12 12:42:59;;;;;;;20.40;4.18;;;;;;;;;;5059259;28;20043;-69
2024/01/12 12:45:45;;;;;;;11.85;3.47;;;;;;;;;;5057412;28;20537;-68
2024/01/12 12:48:31;;;;;;;21.80;4.30;;;;;;;;;;5054660;28;20032;-68
2024/01/12 12:51:17;;;;;;;17.13;4.82;;;;;;;;;;5058783;28;20025;-69
2024/01/12 12:54:03;;;;;;;17.25;2.90;;;;;;;;;;5077193;28;20347;-69
2024/01/12 12:56:49;;;;;;;15.93;4.18;;;;;;;;;;5091816;28;20030;-69
2024/01/12 12:59:35;;;;;;;20.98;3.58;;;;;;;;;;5086132;28;20052;-69
2024/01/12 13:02:21;;;;;;;18.60;3.88;;;;;;;;;;5072209;28;20013;-69
2024/01/12 13:05:09;;;;;;;17.92;3.60;;;;;;;;;;5071994;28;20114;-69
2024/01/12 13:07:55;;;;;;;27.20;4.78;;;;;;;;;;5052338;28;20029;-69
2024/01/12 13:10:41;;;;;;;17.80;4.47;;;;;;;;;;5065485;28;20024;-69
2024/01/12 13:13:27;;;;;;;18.45;3.75;;;;;;;;;;5093854;28;20047;-69
2024/01/12 13:16:12;;;;;;;21.15;3.75;;;;;;;;;;5094248;28;20036;-69
2024/01/12 13:18:59;;;;;;;15.48;4.95;;;;;;;;;;5077395;28;20401;-69
2024/01/12 13:21:44;;;;;;;15.80;3.90;;;;;;;;;;5095298;28;20016;-69
2024/01/12 13:24:30;;;;;;;19.23;4.72;;;;;;;;;;5080710;28;20028;-70
2024/01/12 13:27:16;;;;;;;14.07;3.17;;;;;;;;;;5077287;28;20024;-70
2024/01/12 13:30:04;;;;;;;15.55;3.92;;;;;;;;;;5071983;28;20058;-69
2024/01/12 13:32:49;;;;;;;18.33;3.85;;;;;;;;;;5072752;28;20367;-70
2024/01/12 13:35:35;;;;;;;17.23;3.83;;;;;;;;;;5072173;28;20037;-70
2024/01/12 13:38:20;;;;;;;27.25;4.65;;;;;;;;;;5089509;28;20024;-70
2024/01/12 13:41:07;;;;;;;23.17;5.43;;;;;;;;;;5095045;28;20023;-70
2024/01/12 13:43:53;;;;;;;16.00;4.20;;;;;;;;;;5070389;28;20400;-70
2024/01/12 13:46:39;;;;;;;14.35;3.63;;;;;;;;;;5096038;28;20027;-70
2024/01/12 13:49:25;;;;;;;25.88;3.97;;;;;;;;;;5080566;28;20028;-69
2024/01/12 13:52:11;;;;;;;16.75;2.92;;;;;;;;;;5074411;28;20021;-70
2024/01/12 13:54:57;;;;;;;9.90;3.15;;;;;;;;;;5065991;28;20035;-69
2024/01/12 13:57:42;;;;;;;16.65;4.03;;;;;;;;;;5075657;28;20032;-69
2024/01/12 14:00:28;;;;;;;21.27;3.83;;;;;;;;;;5079703;28;20021;-69
2024/01/12 14:03:14;;;;;;;21.27;3.97;;;;;;;;;;5094807;28;20087;-69
2024/01/12 14:05:59;;;;;;;25.65;3.85;;;;;;;;;;5074161;28;20109;-69
2024/01/12 14:08:45;;;;;;;19.00;3.28;;;;;;;;;;5041173;28;20055;-70
2024/01/12 14:11:33;;;;;;;25.33;3.92;;;;;;;;;;5054531;28;20029;-70
2024/01/12 14:14:18;;;;;;;21.17;3.40;;;;;;;;;;5040461;28;20086;-70
2024/01/12 14:17:04;;;;;;;16.17;3.05;;;;;;;;;;5072871;28;20032;-70
2024/01/12 14:19:50;;;;;;;23.88;3.70;;;;;;;;;;5094520;28;20056;-69
2024/01/12 14:22:36;;;;;;;16.83;4.35;;;;;;;;;;5082864;28;20025;-69
2024/01/12 14:25:22;;;;;;;15.75;2.83;;;;;;;;;;5075630;28;20025;-69
2024/01/12 14:28:07;;;;;;;12.27;4.07;;;;;;;;;;5075163;28;20020;-69
2024/01/12 14:30:54;;;;;;;16.23;4.40;;;;;;;;;;5074405;28;20028;-69
2024/01/12 14:33:41;;;;;;;18.58;3.38;;;;;;;;;;5046242;28;20505;-69
2024/01/12 14:36:27;;;;;;;14.07;3.25;;;;;;;;;;5053643;22;20049;-69
2024/01/12 14:39:12;;;;;;;18.85;3.30;;;;;;;;;;5015579;28;20034;-70
2024/01/12 14:41:58;;;;;;;16.23;3.53;;;;;;;;;;5014781;28;20399;-70
2024/01/12 14:44:44;;;;;;;20.40;4.78;;;;;;;;;;4996014;28;20407;-70
2024/01/12 14:47:30;;;;;;;19.35;3.33;;;;;;;;;;5014688;28;22411;-69
2024/01/12 14:50:15;;;;;;;18.30;3.78;;;;;;;;;;5029290;28;20066;-70
2024/01/12 14:53:01;;;;;;;18.25;3.70;;;;;;;;;;5033527;28;20044;-69
2024/01/12 14:55:47;;;;;;;16.48;5.40;;;;;;;;;;5033549;28;20032;-71
2024/01/12 14:58:32;;;;;;;14.70;3.05;;;;;;;;;;5035128;28;20104;-71
2024/01/12 15:01:18;;;;;;;23.98;6.32;;;;;;;;;;5034430;28;20072;-70
2024/01/12 15:04:04;;;;;;;14.35;2.80;;;;;;;;;;5017955;28;20036;-70
2024/01/12 15:06:50;;;;;;;13.45;4.03;;;;;;;;;;5019294;28;20348;-71
2024/01/12 15:09:36;;;;;;;19.95;4.40;;;;;;;;;;5034862;28;20029;-71
2024/01/12 15:12:21;;;;;;;28.63;6.15;;;;;;;;;;5034526;28;20065;-70
2024/01/12 15:15:08;;;;;;;14.07;3.55;;;;;;;;;;5034457;28;20026;-70
2024/01/12 15:17:54;;;;;;;15.05;3.50;;;;;;;;;;5032482;28;20026;-70
2024/01/12 15:20:40;;;;;;;20.05;4.70;;;;;;;;;;5034197;28;20024;-70
2024/01/12 15:23:27;;;;;;;15.80;3.65;;;;;;;;;;5033904;28;20498;-70
2024/01/12 15:26:13;;;;;;;26.52;4.22;;;;;;;;;;5033033;28;20548;-70
2024/01/12 15:29:00;;;;;;;48.22;13.82;;;;;;;;;;5034010;28;20584;-69
2024/01/12 15:31:45;;;;;;;23.85;6.78;;;;;;;;;;5033006;28;20557;-70
2024/01/12 15:34:31;;;;;;;14.93;4.97;;;;;;;;;;5032098;28;20029;-70
2024/01/12 15:37:17;;;;;;;31.17;4.60;;;;;;;;;;5019917;28;20026;-70
2024/01/12 15:40:04;;;;;;;45.38;13.98;;;;;;;;;;4999590;28;20022;-69
2024/01/12 15:42:51;;;;;;;45.35;15.10;;;;;;;;;;5013805;28;20029;-70
2024/01/12 15:45:38;;;;;;;13.38;3.95;;;;;;;;;;5030330;28;20021;-70
2024/01/12 15:48:23;;;;;;;12.02;3.22;;;;;;;;;;5033179;28;20487;-70
2024/01/12 15:51:14;;;;;;;49.90;12.65;;;;;;;;;;5033533;28;20505;-70
2024/01/12 15:54:00;;;;;;;22.00;3.83;;;;;;;;;;5017190;28;20171;-70
2024/01/12 15:56:46;;;;;;;22.75;4.15;;;;;;;;;;5034031;28;20113;-70
2024/01/12 15:59:32;;;;;;;19.10;4.88;;;;;;;;;;5032763;28;20060;-70
2024/01/12 16:02:17;;;;;;;23.88;5.05;;;;;;;;;;5033784;28;20495;-70
2024/01/12 16:05:03;;;;;;;17.65;3.05;;;;;;;;;;5030174;28;20499;-70
2024/01/12 16:07:49;;;;;;;9.90;2.53;;;;;;;;;;5031054;28;20083;-70
2024/01/12 16:10:35;;;;;;;21.20;3.92;;;;;;;;;;5032849;28;20017;-70
2024/01/12 16:13:21;;;;;;;12.30;2.38;;;;;;;;;;5032136;28;20032;-70
2024/01/12 16:16:06;;;;;;;24.88;3.67;;;;;;;;;;5018066;28;20564;-70
2024/01/12 16:18:52;;;;;;;23.00;2.90;;;;;;;;;;5015082;28;20033;-70
2024/01/12 16:21:38;;;;;;;13.23;3.03;;;;;;;;;;5016873;28;20017;-70